Time;durP1;ratioP1;P1;durP2;ratioP2;P2;SDS_P1;SDS_P2;PMS_P1;PMS_P2;Temp;Humidity;BMP_temperature;BMP_pressure;BME280_temperature;BME280_humidity;BME280_pressure;Samples;Min_cycle;Max_cycle;Signal;HPM_P1;HPM_P2
2022/08/22 00:00:46;;;;;;;4.35;1.13;;;20.60;99.90;;;;;;5038850;28;20051;-79
2022/08/22 00:03:29;;;;;;;4.03;1.30;;;20.60;99.90;;;;;;5040514;28;20045;-78
2022/08/22 00:06:11;;;;;;;3.03;1.02;;;20.60;99.90;;;;;;5027255;28;20078;-79
2022/08/22 00:09:07;;;;;;;9.38;1.65;;;20.60;99.90;;;;;;5020119;28;20077;-78
2022/08/22 00:11:48;;;;;;;2.58;1.30;;;20.50;99.90;;;;;;5002295;28;20088;-79
2022/08/22 00:14:22;;;;;;;2.97;1.30;;;20.50;99.90;;;;;;5038812;28;20117;-79
2022/08/22 00:17:04;;;;;;;3.80;1.45;;;20.40;99.90;;;;;;5038527;28;20049;-79
2022/08/22 00:19:47;;;;;;;4.55;1.95;;;20.40;99.90;;;;;;5030405;28;20120;-78
2022/08/22 00:22:41;;;;;;;3.35;1.30;;;20.40;99.90;;;;;;5031235;28;20049;-79
2022/08/22 00:25:40;;;;;;;3.10;1.08;;;20.40;99.90;;;;;;5021204;28;20053;-79
2022/08/22 00:28:34;;;;;;;2.53;1.20;;;20.40;99.90;;;;;;5020960;28;20074;-78
2022/08/22 00:31:33;;;;;;;3.72;1.75;;;20.40;99.90;;;;;;5014554;28;20061;-78
2022/08/22 00:34:05;;;;;;;3.05;1.42;;;20.40;99.90;;;;;;5036052;28;20113;-78
2022/08/22 00:36:53;;;;;;;2.53;1.40;;;20.30;99.90;;;;;;5021324;28;20106;-78
2022/08/22 00:39:23;;;;;;;2.80;1.40;;;20.40;99.90;;;;;;5032864;28;20060;-79
2022/08/22 00:42:06;;;;;;;;;;;20.30;99.90;;;;;;5026309;28;20052;-79
2022/08/22 00:44:51;;;;;;;3.63;1.15;;;20.30;99.90;;;;;;5022839;28;19967;-79
2022/08/22 00:47:43;;;;;;;3.38;1.27;;;20.30;99.90;;;;;;5024754;28;20046;-79
2022/08/22 00:50:41;;;;;;;5.72;1.42;;;20.20;99.90;;;;;;5014337;28;20065;-79
2022/08/22 00:53:45;;;;;;;3.75;1.95;;;20.20;99.90;;;;;;5037314;28;20081;-78
2022/08/22 00:56:21;;;;;;;2.08;1.15;;;20.10;99.90;;;;;;5034762;28;20136;-79
2022/08/22 00:58:53;;;;;;;6.53;1.20;;;20.10;99.90;;;;;;5033052;28;20053;-79
2022/08/22 01:01:30;;;;;;;5.85;1.45;;;20.00;99.90;;;;;;5024867;28;20538;-78
2022/08/22 01:04:28;;;;;;;4.28;1.17;;;20.00;99.90;;;;;;5031093;28;20045;-78
2022/08/22 01:07:04;;;;;;;5.50;1.65;;;20.00;99.90;;;;;;5022866;28;20068;-78
2022/08/22 01:09:49;;;;;;;5.72;1.38;;;19.90;99.90;;;;;;5022853;28;20423;-79
2022/08/22 01:12:37;;;;;;;3.92;1.23;;;19.90;99.90;;;;;;5023170;28;20054;-79
2022/08/22 01:15:08;;;;;;;4.88;1.30;;;19.80;99.90;;;;;;5023488;28;20153;-78
2022/08/22 01:17:50;;;;;;;4.30;1.30;;;19.70;99.90;;;;;;5025169;28;20085;-79
2022/08/22 01:20:41;;;;;;;6.47;1.75;;;19.70;99.90;;;;;;5024250;28;20089;-79
2022/08/22 01:23:30;;;;;;;6.63;1.27;;;19.70;99.90;;;;;;5031112;28;20116;-78
2022/08/22 01:26:15;;;;;;;4.40;1.52;;;19.60;99.90;;;;;;5031690;28;20123;-78
2022/08/22 01:28:44;;;;;;;3.53;1.35;;;19.50;99.90;;;;;;5024917;28;20052;-78
2022/08/22 01:31:43;;;;;;;9.45;1.63;;;19.50;99.90;;;;;;5025861;28;20052;-78
2022/08/22 01:34:28;;;;;;;1.95;1.30;;;19.40;99.90;;;;;;5030320;28;20088;-79
2022/08/22 01:37:18;;;;;;;5.38;1.73;;;19.40;99.90;;;;;;5030944;28;20080;-79
2022/08/22 01:40:26;;;;;;;2.95;1.30;;;19.40;99.90;;;;;;5023507;28;20081;-78
2022/08/22 01:43:21;;;;;;;4.03;1.50;;;19.40;99.90;;;;;;4975773;28;20089;-78
2022/08/22 01:46:23;;;;;;;3.42;1.52;;;19.30;99.90;;;;;;5030019;28;20056;-77
2022/08/22 01:49:25;;;;;;;5.70;1.83;;;19.30;99.90;;;;;;5032294;28;20085;-78
2022/08/22 01:52:06;;;;;;;4.15;1.60;;;19.20;99.90;;;;;;5027839;28;20069;-78
2022/08/22 01:54:54;;;;;;;3.40;1.52;;;19.20;99.90;;;;;;5027232;28;20046;-78
2022/08/22 01:57:25;;;;;;;4.55;1.42;;;19.20;99.90;;;;;;5028208;28;20107;-78
2022/08/22 02:00:08;;;;;;;4.53;1.63;;;19.20;99.90;;;;;;5028090;28;20073;-79
2022/08/22 02:02:47;;;;;;;3.83;1.38;;;19.20;99.90;;;;;;5032936;28;20045;-79
2022/08/22 02:05:36;;;;;;;1.75;1.48;;;19.20;99.90;;;;;;5031958;28;20426;-78
2022/08/22 02:08:37;;;;;;;3.45;1.42;;;19.20;99.90;;;;;;5038885;28;20049;-79
2022/08/22 02:11:12;;;;;;;6.78;1.27;;;19.20;99.90;;;;;;5033096;28;20050;-78
2022/08/22 02:14:17;;;;;;;4.75;1.73;;;19.10;99.90;;;;;;5038413;28;20128;-79
2022/08/22 02:17:06;;;;;;;8.10;1.65;;;19.10;99.90;;;;;;5037627;28;20053;-78
2022/08/22 02:19:58;;;;;;;6.05;1.60;;;19.10;99.90;;;;;;5033172;28;20050;-78
2022/08/22 02:22:42;;;;;;;4.80;1.50;;;19.10;99.90;;;;;;5032955;28;20081;-79
2022/08/22 02:25:20;;;;;;;3.92;1.58;;;19.10;99.90;;;;;;5032274;28;20464;-79
2022/08/22 02:28:18;;;;;;;4.38;1.40;;;19.00;99.90;;;;;;5031050;28;20053;-79
2022/08/22 02:30:58;;;;;;;1.85;1.60;;;19.00;99.90;;;;;;5027057;28;20128;-79
2022/08/22 02:33:41;;;;;;;6.40;1.58;;;19.00;99.90;;;;;;5032263;28;20103;-79
2022/08/22 02:36:33;;;;;;;2.97;1.73;;;19.00;99.90;;;;;;5032399;28;20049;-79
2022/08/22 02:39:33;;;;;;;6.05;2.03;;;19.00;99.90;;;;;;5026995;28;20089;-78
2022/08/22 02:42:27;;;;;;;5.38;1.65;;;18.90;99.90;;;;;;5030405;28;20046;-78
2022/08/22 02:45:09;;;;;;;7.15;1.90;;;18.90;99.90;;;;;;5033200;28;20046;-79
2022/08/22 02:47:45;;;;;;;3.42;1.75;;;18.90;99.90;;;;;;5033667;28;20124;-79
2022/08/22 02:50:17;;;;;;;5.72;2.15;;;18.90;99.90;;;;;;5033527;28;20132;-79
2022/08/22 02:53:19;;;;;;;2.45;1.35;;;18.80;99.90;;;;;;5026255;28;20150;-79
2022/08/22 02:56:10;;;;;;;4.80;1.73;;;18.90;99.90;;;;;;5033326;28;20060;-78
2022/08/22 02:58:56;;;;;;;4.18;1.65;;;18.80;99.90;;;;;;5043015;28;20081;-77
2022/08/22 03:01:28;;;;;;;3.55;1.30;;;18.80;99.90;;;;;;5030065;28;20060;-77
2022/08/22 03:04:21;;;;;;;7.07;1.60;;;18.70;99.90;;;;;;5028418;28;20511;-78
2022/08/22 03:06:57;;;;;;;3.38;1.98;;;18.80;99.90;;;;;;5030853;28;20065;-76
2022/08/22 03:09:29;;;;;;;3.75;1.80;;;18.70;99.90;;;;;;5027557;28;20092;-77
2022/08/22 03:12:34;;;;;;;6.85;2.10;;;18.70;99.90;;;;;;5028011;28;20046;-78
2022/08/22 03:15:10;;;;;;;4.97;1.58;;;18.80;99.90;;;;;;5033781;28;20073;-78
2022/08/22 03:18:05;;;;;;;4.10;1.58;;;18.80;99.90;;;;;;5032578;28;20080;-77
2022/08/22 03:20:51;;;;;;;3.08;1.60;;;18.80;99.90;;;;;;5031762;28;20530;-77
2022/08/22 03:23:55;;;;;;;4.75;2.42;;;18.70;99.90;;;;;;5032057;28;20077;-78
2022/08/22 03:26:41;;;;;;;6.38;1.80;;;18.70;99.90;;;;;;5028867;28;20419;-78
2022/08/22 03:29:27;;;;;;;6.82;2.35;;;18.60;99.90;;;;;;5019242;28;20108;-77
2022/08/22 03:32:13;;;;;;;3.42;1.90;;;18.60;99.90;;;;;;5022250;28;20080;-77
2022/08/22 03:35:02;;;;;;;4.22;1.40;;;18.50;99.90;;;;;;5033541;28;20077;-78
2022/08/22 03:37:36;;;;;;;5.90;1.73;;;18.50;99.90;;;;;;5032982;28;20080;-80
2022/08/22 03:40:30;;;;;;;8.90;1.88;;;18.60;99.90;;;;;;5033065;28;20463;-77
2022/08/22 03:43:31;;;;;;;6.28;1.92;;;18.30;99.90;;;;;;5030791;28;20057;-77
2022/08/22 03:46:06;;;;;;;2.70;1.60;;;18.30;99.90;;;;;;5034525;28;20415;-77
2022/08/22 03:49:01;;;;;;;4.22;1.60;;;18.20;99.90;;;;;;5030507;28;20052;-77
2022/08/22 03:51:44;;;;;;;2.33;1.45;;;18.20;99.90;;;;;;5030407;28;20091;-78
2022/08/22 03:54:39;;;;;;;2.17;1.40;;;18.30;99.90;;;;;;5034615;28;20089;-78
2022/08/22 03:57:53;;;;;;;4.43;1.40;;;18.30;99.90;;;;;;5031024;28;20532;-77
2022/08/22 04:00:44;;;;;;;6.45;1.70;;;18.20;99.90;;;;;;5030770;28;20053;-77
2022/08/22 04:03:40;;;;;;;3.58;1.70;;;18.20;99.90;;;;;;5031006;28;20045;-78
2022/08/22 04:06:13;;;;;;;3.97;1.90;;;18.20;99.90;;;;;;5032446;28;20129;-77
2022/08/22 04:09:12;;;;;;;4.15;1.90;;;18.20;99.90;;;;;;5015296;28;20046;-78
2022/08/22 04:12:00;;;;;;;5.97;2.08;;;18.10;99.90;;;;;;5023289;28;20416;-77
2022/08/22 04:14:42;;;;;;;5.88;1.58;;;18.10;99.90;;;;;;5033388;28;20077;-77
2022/08/22 04:17:32;;;;;;;5.50;1.67;;;18.00;99.90;;;;;;5028726;28;20114;-77
2022/08/22 04:20:24;;;;;;;3.40;1.70;;;18.10;99.90;;;;;;5016129;28;20463;-77
2022/08/22 04:23:22;;;;;;;5.65;2.03;;;18.00;99.90;;;;;;5016639;28;20050;-77
2022/08/22 04:26:05;;;;;;;4.38;2.13;;;18.00;99.90;;;;;;5020171;28;20046;-77
2022/08/22 04:29:14;;;;;;;6.57;1.55;;;17.90;99.90;;;;;;5016734;28;20077;-77
2022/08/22 04:31:48;;;;;;;6.75;1.88;;;17.90;99.90;;;;;;5032373;28;20046;-77
2022/08/22 04:34:24;;;;;;;5.60;1.90;;;17.90;99.90;;;;;;5020297;28;20448;-77
2022/08/22 04:37:00;;;;;;;2.08;1.40;;;17.90;99.90;;;;;;5017060;28;20057;-79
2022/08/22 04:39:37;;;;;;;7.32;2.03;;;17.90;99.90;;;;;;5014874;28;20164;-77
2022/08/22 04:42:18;;;;;;;5.10;1.85;;;17.80;99.90;;;;;;5015227;28;20455;-80
2022/08/22 04:45:03;;;;;;;9.07;2.28;;;17.80;99.90;;;;;;5017062;28;20141;-77
2022/08/22 04:47:53;;;;;;;4.13;2.30;;;17.80;99.90;;;;;;5017409;28;20120;-77
2022/08/22 04:50:49;;;;;;;2.63;1.88;;;17.80;99.90;;;;;;5016619;28;20050;-77
2022/08/22 04:53:25;;;;;;;5.60;1.88;;;17.80;99.90;;;;;;5028937;28;20049;-77
2022/08/22 04:55:54;;;;;;;4.88;1.83;;;17.70;99.90;;;;;;5015379;28;20088;-77
2022/08/22 04:58:48;;;;;;;5.00;1.80;;;17.60;99.90;;;;;;5016623;28;20085;-76
2022/08/22 05:01:37;;;;;;;3.60;1.95;;;17.70;99.90;;;;;;5029132;28;20053;-77
2022/08/22 05:04:18;;;;;;;5.97;1.75;;;17.70;99.90;;;;;;5018768;28;20052;-78
2022/08/22 05:06:50;;;;;;;2.67;2.05;;;17.70;99.90;;;;;;5029045;28;20081;-78
2022/08/22 05:09:23;;;;;;;4.70;1.75;;;17.70;99.90;;;;;;5023596;28;20085;-78
2022/08/22 05:11:53;;;;;;;7.78;2.00;;;17.80;99.90;;;;;;5014900;28;20054;-78
2022/08/22 05:14:32;;;;;;;6.15;1.95;;;17.80;99.90;;;;;;5017250;28;20535;-78
2022/08/22 05:17:01;;;;;;;4.38;1.65;;;17.80;99.90;;;;;;5020352;28;20057;-78
2022/08/22 05:19:36;;;;;;;2.75;1.65;;;17.80;99.90;;;;;;5020536;28;20092;-78
2022/08/22 05:22:10;;;;;;;4.03;1.40;;;17.80;99.90;;;;;;5020065;28;20508;-78
2022/08/22 05:24:41;;;;;;;6.88;2.30;;;17.80;99.90;;;;;;5020770;28;20132;-79
2022/08/22 05:27:21;;;;;;;5.65;1.85;;;17.80;99.90;;;;;;5023207;28;20523;-78
2022/08/22 05:29:52;;;;;;;6.93;2.10;;;17.80;99.90;;;;;;5020674;28;20088;-79
2022/08/22 05:32:27;;;;;;;1.92;1.60;;;17.90;99.90;;;;;;5029451;28;20088;-78
2022/08/22 05:35:02;;;;;;;3.72;1.95;;;17.90;99.90;;;;;;5027355;28;20054;-80
2022/08/22 05:37:52;;;;;;;4.25;1.35;;;17.90;99.90;;;;;;5013723;28;20060;-78
2022/08/22 05:40:24;;;;;;;3.25;1.80;;;17.90;99.90;;;;;;5020701;28;20049;-79
2022/08/22 05:42:53;;;;;;;3.17;1.83;;;17.90;99.90;;;;;;5025534;28;20120;-76
2022/08/22 05:45:21;;;;;;;7.22;2.15;;;18.00;99.90;;;;;;5023360;28;20103;-78
2022/08/22 05:47:56;;;;;;;8.63;2.35;;;18.00;99.90;;;;;;5021649;28;20085;-79
2022/08/22 05:50:40;;;;;;;3.17;1.63;;;18.10;99.90;;;;;;5023300;28;20049;-77
2022/08/22 05:53:13;;;;;;;3.60;2.00;;;18.10;99.90;;;;;;5019621;28;20054;-77
2022/08/22 05:56:17;;;;;;;3.72;1.60;;;18.20;99.90;;;;;;5021804;28;20060;-81
2022/08/22 05:58:51;;;;;;;3.50;1.70;;;18.20;99.90;;;;;;5005309;28;20133;-78
2022/08/22 06:01:36;;;;;;;4.25;1.83;;;18.20;99.90;;;;;;5029298;28;20499;-79
2022/08/22 06:04:25;;;;;;;4.00;1.63;;;18.30;99.90;;;;;;5022823;28;20056;-78
2022/08/22 06:06:58;;;;;;;4.03;1.70;;;18.40;99.90;;;;;;5023192;28;20085;-78
2022/08/22 06:09:37;;;;;;;3.72;1.80;;;18.40;99.90;;;;;;5022662;28;20056;-78
2022/08/22 06:12:14;;;;;;;2.40;1.60;;;18.50;99.90;;;;;;5024636;28;20092;-77
2022/08/22 06:15:13;;;;;;;4.43;1.95;;;18.60;99.90;;;;;;5022715;28;20107;-78
2022/08/22 06:17:49;;;;;;;4.97;2.00;;;18.70;99.90;;;;;;5026319;28;20534;-79
2022/08/22 06:20:23;;;;;;;3.10;1.80;;;18.80;99.90;;;;;;5024447;28;20077;-78
2022/08/22 06:22:54;;;;;;;6.78;2.22;;;18.80;99.90;;;;;;5016507;28;20081;-78
2022/08/22 06:25:26;;;;;;;5.05;2.30;;;18.90;99.90;;;;;;5013427;28;20563;-78
2022/08/22 06:27:54;;;;;;;6.05;2.28;;;19.00;99.90;;;;;;5025242;28;20058;-78
2022/08/22 06:30:25;;;;;;;10.52;2.53;;;19.10;99.90;;;;;;5013523;28;20053;-78
2022/08/22 06:32:57;;;;;;;3.22;1.60;;;19.10;99.90;;;;;;5013639;28;20097;-79
2022/08/22 06:38:24;;;;;;;4.28;1.90;;;19.40;99.90;;;;;;5020941;28;20081;-77
2022/08/22 06:40:53;;;;;;;4.20;1.90;;;19.50;99.90;;;;;;5021759;28;20046;-78
2022/08/22 06:43:22;;;;;;;6.50;2.05;;;19.60;99.90;;;;;;5026845;28;20056;-78
2022/08/22 06:45:49;;;;;;;5.45;1.80;;;19.70;99.90;;;;;;5029363;28;20041;-78
2022/08/22 06:48:20;;;;;;;7.07;1.88;;;19.70;99.90;;;;;;5031505;28;20049;-77
2022/08/22 06:50:52;;;;;;;4.18;1.92;;;19.90;99.90;;;;;;5017647;28;20438;-79
2022/08/22 06:53:35;;;;;;;6.90;2.00;;;20.00;99.90;;;;;;5018077;28;20049;-78
2022/08/22 06:56:06;;;;;;;3.65;1.65;;;20.10;99.90;;;;;;5023586;28;20049;-78
2022/08/22 06:58:40;;;;;;;5.55;1.70;;;20.30;99.90;;;;;;5031121;28;20049;-78
2022/08/22 07:01:15;;;;;;;6.03;1.77;;;20.40;99.90;;;;;;5033117;28;20073;-78
2022/08/22 07:03:57;;;;;;;6.55;2.08;;;20.50;99.90;;;;;;5032748;28;20060;-77
2022/08/22 07:06:34;;;;;;;4.90;1.70;;;20.70;99.90;;;;;;5031866;28;20056;-78
2022/08/22 07:09:03;;;;;;;3.35;1.80;;;20.70;99.90;;;;;;5032034;28;20049;-78
2022/08/22 07:11:38;;;;;;;7.38;2.00;;;20.90;99.90;;;;;;5033236;28;20108;-77
2022/08/22 07:14:10;;;;;;;5.80;1.50;;;20.90;99.90;;;;;;5034942;28;20053;-77
2022/08/22 07:16:50;;;;;;;3.58;1.58;;;21.00;99.90;;;;;;5026128;28;20173;-77
2022/08/22 07:19:38;;;;;;;6.72;2.20;;;21.00;99.90;;;;;;5021800;28;20054;-78
2022/08/22 07:22:21;;;;;;;7.18;2.28;;;21.00;99.90;;;;;;5021209;28;20511;-79
2022/08/22 07:24:56;;;;;;;6.60;1.90;;;21.00;99.90;;;;;;5021676;28;20124;-78
2022/08/22 07:27:42;;;;;;;6.97;1.95;;;21.00;99.90;;;;;;5031490;28;20523;-78
2022/08/22 07:30:17;;;;;;;9.25;2.03;;;21.00;99.90;;;;;;5034539;28;20053;-78
2022/08/22 07:33:05;;;;;;;7.80;2.10;;;21.00;99.90;;;;;;5033151;28;20048;-78
2022/08/22 07:35:59;;;;;;;7.93;2.03;;;21.00;99.90;;;;;;5033125;28;20057;-79
2022/08/22 07:38:42;;;;;;;4.82;1.90;;;21.00;99.90;;;;;;5033883;28;20124;-78
2022/08/22 07:41:15;;;;;;;3.90;1.80;;;20.90;99.90;;;;;;5031485;28;20136;-78
2022/08/22 07:43:50;;;;;;;3.58;1.73;;;20.80;99.90;;;;;;5032506;28;20072;-78
2022/08/22 07:46:30;;;;;;;4.55;1.70;;;20.80;99.90;;;;;;5018713;28;20050;-76
2022/08/22 07:49:23;;;;;;;4.60;2.10;;;20.80;99.90;;;;;;5018610;28;20084;-79
2022/08/22 07:51:59;;;;;;;5.28;1.80;;;20.80;99.90;;;;;;5017474;28;20081;-77
2022/08/22 07:54:28;;;;;;;4.50;1.75;;;20.80;99.90;;;;;;5016315;28;20137;-78
2022/08/22 07:57:13;;;;;;;5.60;1.55;;;20.80;99.90;;;;;;5016548;28;20080;-77
2022/08/22 07:59:51;;;;;;;6.65;2.03;;;20.80;99.90;;;;;;5020217;28;20060;-77
2022/08/22 08:02:20;;;;;;;4.03;2.00;;;20.80;99.90;;;;;;5032398;28;20128;-78
2022/08/22 08:04:53;;;;;;;3.78;2.15;;;20.80;99.90;;;;;;5032791;28;20716;-79
2022/08/22 08:07:24;;;;;;;4.40;2.17;;;20.80;99.90;;;;;;5029929;28;20096;-78
2022/08/22 08:09:59;;;;;;;4.63;1.70;;;20.80;99.90;;;;;;5017212;28;20081;-78
2022/08/22 08:12:57;;;;;;;4.85;1.77;;;20.80;99.90;;;;;;5035523;28;20698;-77
2022/08/22 08:15:31;;;;;;;5.05;1.88;;;20.90;99.90;;;;;;5019301;28;20064;-80
2022/08/22 08:18:04;;;;;;;6.57;2.13;;;21.00;99.90;;;;;;5019495;28;20046;-79
2022/08/22 08:20:34;;;;;;;7.38;2.20;;;21.00;99.90;;;;;;5015210;28;20197;-78
2022/08/22 08:23:02;;;;;;;4.78;2.25;;;21.00;99.90;;;;;;5023820;28;20054;-78
2022/08/22 08:25:31;;;;;;;5.75;2.20;;;21.00;99.90;;;;;;5014823;28;20125;-77
2022/08/22 08:30:53;;;;;;;4.15;1.83;;;21.20;99.90;;;;;;5016572;28;20550;-78
2022/08/22 08:33:25;;;;;;;3.88;1.90;;;21.20;99.90;;;;;;5019815;28;20136;-79
2022/08/22 08:36:22;;;;;;;10.23;2.25;;;21.30;99.90;;;;;;5027917;28;20590;-79
2022/08/22 08:39:01;;;;;;;4.10;1.70;;;21.20;99.90;;;;;;5026346;28;20125;-78
2022/08/22 08:41:46;;;;;;;3.90;1.67;;;21.30;99.90;;;;;;5019004;28;20121;-79
2022/08/22 08:44:23;;;;;;;6.50;1.80;;;21.30;99.90;;;;;;5030812;28;20037;-79
2022/08/22 08:46:53;;;;;;;5.03;1.98;;;21.40;99.90;;;;;;5026620;28;20136;-78
2022/08/22 08:49:30;;;;;;;4.80;1.90;;;21.40;99.90;;;;;;5029913;28;20057;-78
2022/08/22 08:52:26;;;;;;;6.40;2.50;;;21.50;99.90;;;;;;5026974;28;20045;-77
2022/08/22 08:55:22;;;;;;;6.07;2.03;;;21.50;99.90;;;;;;5021956;28;20088;-79
2022/08/22 08:58:07;;;;;;;2.45;1.83;;;21.60;99.90;;;;;;5024226;28;20049;-78
2022/08/22 09:00:48;;;;;;;8.38;2.28;;;21.60;99.90;;;;;;5027522;28;20052;-78
2022/08/22 09:03:42;;;;;;;7.00;1.73;;;21.70;99.90;;;;;;5026050;28;20049;-77
2022/08/22 09:06:36;;;;;;;4.50;2.03;;;21.70;99.90;;;;;;5021575;28;20312;-78
2022/08/22 09:09:10;;;;;;;4.25;2.17;;;21.80;99.90;;;;;;5025267;28;20056;-77
2022/08/22 09:11:56;;;;;;;2.55;1.83;;;21.80;99.90;;;;;;5029606;28;20495;-77
2022/08/22 09:14:32;;;;;;;6.50;2.65;;;21.90;99.90;;;;;;5024092;28;20053;-79
2022/08/22 09:17:41;;;;;;;2.60;1.63;;;21.90;99.90;;;;;;5023715;28;20050;-78
2022/08/22 09:20:29;;;;;;;3.88;1.73;;;21.90;99.90;;;;;;5022330;28;20076;-78
2022/08/22 09:23:19;;;;;;;7.00;2.10;;;22.00;99.90;;;;;;5025912;28;20608;-78
2022/08/22 09:26:03;;;;;;;2.88;1.77;;;22.00;99.90;;;;;;5023046;28;20140;-79
2022/08/22 09:28:35;;;;;;;8.85;3.08;;;22.00;99.90;;;;;;5028193;28;20046;-78
2022/08/22 09:31:47;;;;;;;5.05;2.05;;;22.10;99.90;;;;;;5028317;28;20402;-78
2022/08/22 09:34:24;;;;;;;4.20;1.92;;;22.10;99.90;;;;;;5022735;28;20061;-79
2022/08/22 09:37:20;;;;;;;4.13;1.63;;;22.10;99.90;;;;;;5026652;28;20053;-78
2022/08/22 09:40:06;;;;;;;3.67;1.60;;;22.20;99.90;;;;;;5028499;28;20514;-79
2022/08/22 09:43:14;;;;;;;5.70;1.88;;;22.20;99.90;;;;;;5027628;28;20056;-78
2022/08/22 09:46:13;;;;;;;5.13;2.38;;;22.30;99.90;;;;;;5024616;28;20068;-78
2022/08/22 09:49:09;;;;;;;6.20;1.92;;;22.30;99.90;;;;;;5028425;28;20504;-77
2022/08/22 09:52:15;;;;;;;6.50;1.90;;;22.40;99.90;;;;;;5028149;28;20049;-78
2022/08/22 09:55:04;;;;;;;4.75;1.80;;;22.40;99.90;;;;;;5006698;28;20054;-78
2022/08/22 09:57:49;;;;;;;4.03;1.48;;;22.50;99.90;;;;;;5027827;28;20128;-78
2022/08/22 10:00:23;;;;;;;12.43;2.70;;;22.50;99.90;;;;;;5027821;28;20081;-78
2022/08/22 10:03:26;;;;;;;2.90;1.60;;;22.50;99.90;;;;;;5033113;28;20140;-78
2022/08/22 10:06:03;;;;;;;6.28;1.95;;;22.50;99.90;;;;;;5026886;28;20049;-78
2022/08/22 10:08:46;;;;;;;6.65;2.00;;;22.50;99.90;;;;;;5026042;28;20128;-77
2022/08/22 10:11:19;;;;;;;4.38;2.03;;;22.60;99.90;;;;;;5024132;28;20085;-78
2022/08/22 10:14:06;;;;;;;5.63;1.63;;;22.60;99.90;;;;;;5025264;28;20053;-78
2022/08/22 10:17:00;;;;;;;3.47;1.85;;;22.70;99.90;;;;;;5023382;28;20054;-77
2022/08/22 10:19:36;;;;;;;4.90;1.88;;;22.80;99.90;;;;;;5025349;28;20084;-78
2022/08/22 10:22:30;;;;;;;3.22;1.80;;;22.80;99.90;;;;;;5027777;28;20045;-77
2022/08/22 10:25:23;;;;;;;4.07;1.90;;;22.80;99.90;;;;;;5033689;28;20081;-77
2022/08/22 10:28:08;;;;;;;4.38;1.95;;;22.90;99.90;;;;;;5027029;28;20132;-77
2022/08/22 10:30:57;;;;;;;5.43;1.98;;;22.90;99.90;;;;;;5026755;28;20050;-77
2022/08/22 10:33:31;;;;;;;3.25;1.83;;;22.90;99.90;;;;;;5028974;28;20045;-78
2022/08/22 10:36:09;;;;;;;9.88;3.10;;;22.90;99.90;;;;;;5030937;28;20823;-77
2022/08/22 10:38:52;;;;;;;4.30;1.75;;;22.90;99.90;;;;;;5029038;28;20046;-79
2022/08/22 10:41:53;;;;;;;4.75;1.73;;;22.90;99.90;;;;;;5031175;28;20482;-79
2022/08/22 10:44:29;;;;;;;3.70;2.20;;;22.90;99.90;;;;;;5035088;28;20046;-78
2022/08/22 10:47:06;;;;;;;7.40;1.80;;;23.00;99.90;;;;;;5025033;28;20105;-78
2022/08/22 10:49:44;;;;;;;4.80;2.15;;;23.00;99.90;;;;;;5029139;28;20133;-77
2022/08/22 10:52:24;;;;;;;7.60;2.45;;;23.10;99.90;;;;;;5030029;28;20049;-77
2022/08/22 10:54:59;;;;;;;4.25;2.00;;;23.20;99.90;;;;;;5029685;28;20049;-78
2022/08/22 10:57:40;;;;;;;5.35;3.05;;;23.30;99.90;;;;;;5030223;28;20096;-78
2022/08/22 11:00:26;;;;;;;3.72;2.25;;;23.30;99.90;;;;;;5030994;28;20088;-78
2022/08/22 11:03:17;;;;;;;5.25;2.28;;;23.40;99.90;;;;;;5032363;28;20046;-78
2022/08/22 11:05:53;;;;;;;6.22;2.00;;;23.40;99.90;;;;;;5032275;28;20124;-78
2022/08/22 11:08:49;;;;;;;3.38;1.88;;;23.50;99.90;;;;;;5023426;28;20470;-77
2022/08/22 11:11:31;;;;;;;6.75;2.55;;;23.60;99.90;;;;;;5034177;28;20544;-78
2022/08/22 11:14:28;;;;;;;4.13;1.80;;;23.80;99.90;;;;;;5030300;28;20124;-78
2022/08/22 11:17:01;;;;;;;4.75;2.00;;;23.90;99.90;;;;;;5023065;28;20073;-77
2022/08/22 11:20:23;;;;;;;11.30;1.90;;;24.10;99.90;;;;;;5032084;28;20080;-79
2022/08/22 11:23:05;;;;;;;3.80;2.13;;;24.30;99.90;;;;;;5032112;28;20041;-78
2022/08/22 11:25:44;;;;;;;6.97;2.33;;;24.40;99.90;;;;;;5031470;28;20060;-78
2022/08/22 11:28:53;;;;;;;4.60;1.92;;;24.60;99.90;;;;;;5024747;28;20049;-78
2022/08/22 11:31:58;;;;;;;4.22;2.10;;;24.70;99.90;;;;;;5025766;28;20496;-77
2022/08/22 11:34:43;;;;;;;5.13;2.20;;;24.80;99.90;;;;;;5021081;28;20068;-77
2022/08/22 11:37:21;;;;;;;3.85;2.17;;;24.90;99.90;;;;;;5018038;28;20507;-78
2022/08/22 11:40:03;;;;;;;5.53;2.40;;;24.90;99.90;;;;;;5030156;28;20045;-79
2022/08/22 11:42:33;;;;;;;;;;;25.00;99.90;;;;;;5032920;28;20300;-79
2022/08/22 11:45:04;;;;;;;3.72;1.90;;;25.00;99.90;;;;;;5033628;28;19956;-77
2022/08/22 11:47:47;;;;;;;5.15;1.90;;;25.00;99.90;;;;;;5024178;28;20409;-78
2022/08/22 11:50:41;;;;;;;5.97;1.80;;;25.00;99.90;;;;;;5025986;28;20140;-78
2022/08/22 11:53:09;;;;;;;6.72;2.58;;;25.00;99.90;;;;;;5018541;28;20396;-77
2022/08/22 11:55:39;;;;;;;5.30;1.90;;;25.00;99.90;;;;;;5016480;28;20055;-78
2022/08/22 11:58:25;;;;;;;4.88;1.92;;;25.00;99.90;;;;;;5015358;28;20113;-78
2022/08/22 12:00:59;;;;;;;3.22;1.73;;;25.00;99.90;;;;;;5030139;28;20053;-78
2022/08/22 12:03:33;;;;;;;6.40;1.88;;;25.00;99.90;;;;;;5033193;28;20065;-78
2022/08/22 12:06:04;;;;;;;3.90;1.90;;;24.90;99.90;;;;;;5028724;28;20037;-77
2022/08/22 12:08:34;;;;;;;3.85;1.65;;;24.90;99.90;;;;;;5029391;28;20046;-78
2022/08/22 12:11:28;;;;;;;4.25;1.88;;;24.90;99.90;;;;;;5014706;28;20046;-78
2022/08/22 12:14:01;;;;;;;2.92;1.65;;;25.00;99.90;;;;;;5031904;28;20530;-77
2022/08/22 12:16:40;;;;;;;6.38;2.00;;;25.00;99.90;;;;;;5033874;28;20762;-76
2022/08/22 12:19:37;;;;;;;3.58;1.52;;;25.00;99.90;;;;;;5015898;28;20050;-78
2022/08/22 12:22:51;;;;;;;3.25;1.90;;;25.10;99.90;;;;;;5015332;28;20049;-77
2022/08/22 12:25:57;;;;;;;5.25;2.13;;;25.30;99.90;;;;;;5020936;28;20460;-78
2022/08/22 12:28:39;;;;;;;4.78;1.80;;;25.30;99.90;;;;;;4989270;28;20045;-78
2022/08/22 12:31:34;;;;;;;2.78;1.75;;;25.30;99.90;;;;;;5014503;28;20049;-78
2022/08/22 12:34:26;;;;;;;2.55;1.67;;;25.20;99.90;;;;;;5016263;28;20107;-79
2022/08/22 12:37:09;;;;;;;5.28;2.10;;;25.20;99.90;;;;;;5029421;28;20132;-78
2022/08/22 12:39:49;;;;;;;5.20;1.67;;;25.20;99.90;;;;;;5031821;28;20049;-78
2022/08/22 12:42:21;;;;;;;4.15;2.30;;;25.20;99.90;;;;;;5018799;28;20046;-79
2022/08/22 12:45:09;;;;;;;3.88;1.98;;;25.10;99.90;;;;;;5020074;28;20077;-79
2022/08/22 12:47:48;;;;;;;3.40;1.52;;;25.10;99.90;;;;;;5033968;28;20479;-79
2022/08/22 12:50:39;;;;;;;;;;;25.10;99.90;;;;;;5032503;28;20046;-78
2022/08/22 12:53:33;;;;;;;2.78;1.60;;;25.10;99.90;;;;;;5030112;28;19978;-76
2022/08/22 12:56:07;;;;;;;3.35;1.90;;;25.10;99.90;;;;;;5033564;28;20515;-77
2022/08/22 12:59:11;;;;;;;3.75;1.90;;;25.10;99.90;;;;;;5030461;28;20045;-77
2022/08/22 13:01:47;;;;;;;4.20;2.00;;;25.10;99.90;;;;;;5019047;28;20482;-77
2022/08/22 13:04:17;;;;;;;2.08;1.40;;;25.10;99.90;;;;;;5019538;28;20476;-78
2022/08/22 13:07:04;;;;;;;4.22;1.90;;;25.10;99.90;;;;;;5020540;28;20057;-77
2022/08/22 13:09:36;;;;;;;4.53;1.67;;;25.10;99.90;;;;;;5029514;28;20075;-78
2022/08/22 13:12:18;;;;;;;3.28;1.70;;;25.10;99.90;;;;;;5030423;28;20141;-77
2022/08/22 13:14:51;;;;;;;2.28;1.63;;;25.10;99.90;;;;;;5028998;28;20053;-76
2022/08/22 13:17:20;;;;;;;4.28;1.77;;;25.20;99.90;;;;;;5027178;28;20053;-78
2022/08/22 13:20:11;;;;;;;3.10;1.55;;;25.30;99.90;;;;;;5023262;28;20113;-78
2022/08/22 13:22:42;;;;;;;3.35;1.85;;;25.30;99.90;;;;;;5026923;28;20041;-78
2022/08/22 13:25:23;;;;;;;3.00;1.65;;;25.30;99.90;;;;;;5019957;28;20050;-78
2022/08/22 13:27:58;;;;;;;3.47;1.80;;;25.30;99.90;;;;;;5026738;28;20416;-78
2022/08/22 13:30:33;;;;;;;5.07;1.70;;;25.40;99.90;;;;;;5026004;28;20050;-79
2022/08/22 13:33:12;;;;;;;3.95;1.92;;;25.50;99.90;;;;;;5020024;28;20080;-77
2022/08/22 13:35:49;;;;;;;3.05;1.80;;;25.40;99.90;;;;;;5026152;28;20109;-78
2022/08/22 13:38:23;;;;;;;2.20;1.55;;;25.50;99.90;;;;;;5025072;28;20061;-77
2022/08/22 13:40:55;;;;;;;2.17;1.70;;;25.50;99.90;;;;;;5020513;28;20061;-78
2022/08/22 13:43:29;;;;;;;2.63;1.75;;;25.50;99.90;;;;;;5025802;28;20081;-76
2022/08/22 13:46:00;;;;;;;3.35;1.92;;;25.60;99.90;;;;;;5021513;28;20547;-78
2022/08/22 13:48:49;;;;;;;3.00;1.50;;;25.60;99.90;;;;;;5023060;28;20053;-77
2022/08/22 13:51:39;;;;;;;6.97;1.83;;;25.60;99.90;;;;;;5023413;28;20041;-78
2022/08/22 13:54:35;;;;;;;5.40;1.98;;;25.60;99.90;;;;;;5025522;28;20049;-78
2022/08/22 13:57:18;;;;;;;2.88;2.00;;;25.70;99.90;;;;;;5028703;28;20500;-78
2022/08/22 13:59:52;;;;;;;3.03;1.83;;;25.70;99.90;;;;;;5029377;28;20351;-78
2022/08/22 14:02:37;;;;;;;4.28;2.00;;;25.70;99.90;;;;;;5028242;28;20049;-77
2022/08/22 14:05:16;;;;;;;3.47;1.63;;;25.60;99.90;;;;;;5028318;28;20079;-78
2022/08/22 14:07:50;;;;;;;2.40;1.70;;;25.70;99.90;;;;;;5029783;28;20077;-78
2022/08/22 14:10:26;;;;;;;2.00;1.70;;;25.70;99.90;;;;;;5027775;28;20133;-78
2022/08/22 14:12:56;;;;;;;2.72;1.70;;;25.80;99.90;;;;;;5028195;28;20049;-78
2022/08/22 14:15:34;;;;;;;4.32;1.73;;;25.80;99.90;;;;;;5028693;28;20132;-77